sensor_id;sensor_type;location;lat;lon;timestamp;pressure;altitude;pressure_sealevel;temperature;humidity
64886;BME280;51514;52.206;5.114;2023-05-11T00:02:24;101515.41;;;14.74;99.72
64886;BME280;51514;52.206;5.114;2023-05-11T00:04:49;101518.97;;;14.74;99.84
64886;BME280;51514;52.206;5.114;2023-05-11T00:07:14;101522.53;;;14.75;99.46
64886;BME280;51514;52.206;5.114;2023-05-11T00:09:40;101512.72;;;14.74;99.30
64886;BME280;51514;52.206;5.114;2023-05-11T00:12:06;101520.69;;;14.75;99.61
64886;BME280;51514;52.206;5.114;2023-05-11T00:14:31;101516.09;;;14.76;99.48
64886;BME280;51514;52.206;5.114;2023-05-11T00:16:57;101518.66;;;14.77;99.66
64886;BME280;51514;52.206;5.114;2023-05-11T00:19:22;101520.34;;;14.78;99.43
64886;BME280;51514;52.206;5.114;2023-05-11T00:21:47;101514.91;;;14.78;99.29
64886;BME280;51514;52.206;5.114;2023-05-11T00:24:13;101511.34;;;14.78;99.38
64886;BME280;51514;52.206;5.114;2023-05-11T00:26:38;101514.91;;;14.78;99.48
64886;BME280;51514;52.206;5.114;2023-05-11T00:29:03;101507.78;;;14.77;99.40
64886;BME280;51514;52.206;5.114;2023-05-11T00:31:28;101500.34;;;14.79;99.27
64886;BME280;51514;52.206;5.114;2023-05-11T00:33:54;101502.03;;;14.80;99.34
64886;BME280;51514;52.206;5.114;2023-05-11T00:36:19;101503.06;;;14.79;99.64
64886;BME280;51514;52.206;5.114;2023-05-11T00:38:45;101500.34;;;14.79;99.33
64886;BME280;51514;52.206;5.114;2023-05-11T00:41:10;101491.50;;;14.77;99.73
64886;BME280;51514;52.206;5.114;2023-05-11T00:43:35;101494.38;;;14.76;99.77
64886;BME280;51514;52.206;5.114;2023-05-11T00:46:02;101488.09;;;14.75;99.65
64886;BME280;51514;52.206;5.114;2023-05-11T00:48:28;101496.59;;;14.72;99.56
64886;BME280;51514;52.206;5.114;2023-05-11T00:50:53;101496.78;;;14.71;99.27
64886;BME280;51514;52.206;5.114;2023-05-11T00:53:19;101500.31;;;14.71;99.65
64886;BME280;51514;52.206;5.114;2023-05-11T00:55:45;101492.00;;;14.65;99.80
64886;BME280;51514;52.206;5.114;2023-05-11T00:58:10;101506.44;;;14.65;99.82
64886;BME280;51514;52.206;5.114;2023-05-11T01:00:36;101510.31;;;14.63;99.71
64886;BME280;51514;52.206;5.114;2023-05-11T01:03:01;101509.47;;;14.62;99.72
64886;BME280;51514;52.206;5.114;2023-05-11T01:05:51;101508.63;;;14.61;100.00
64886;BME280;51514;52.206;5.114;2023-05-11T01:08:21;101518.31;;;14.64;100.00
64886;BME280;51514;52.206;5.114;2023-05-11T01:10:57;101521.69;;;14.66;100.00
64886;BME280;51514;52.206;5.114;2023-05-11T01:15:57;101514.25;;;14.68;100.00
64886;BME280;51514;52.206;5.114;2023-05-11T01:18:27;101516.28;;;14.66;99.96
64886;BME280;51514;52.206;5.114;2023-05-11T01:20:57;101514.41;;;14.58;100.00
64886;BME280;51514;52.206;5.114;2023-05-11T01:31:57;101510.16;;;14.56;100.00
64886;BME280;51514;52.206;5.114;2023-05-11T01:34:26;101506.75;;;14.54;100.00
64886;BME280;51514;52.206;5.114;2023-05-11T01:36:56;101507.28;;;14.57;100.00
64886;BME280;51514;52.206;5.114;2023-05-11T01:39:37;101504.72;;;14.56;100.00
64886;BME280;51514;52.206;5.114;2023-05-11T01:42:08;101499.31;;;14.56;100.00
64886;BME280;51514;52.206;5.114;2023-05-11T01:44:36;101496.59;;;14.56;100.00
64886;BME280;51514;52.206;5.114;2023-05-11T01:47:03;101502.03;;;14.56;100.00
64886;BME280;51514;52.206;5.114;2023-05-11T01:49:32;101494.53;;;14.50;100.00
64886;BME280;51514;52.206;5.114;2023-05-11T01:52:01;101496.75;;;14.46;100.00
64886;BME280;51514;52.206;5.114;2023-05-11T01:54:28;101499.31;;;14.48;100.00
64886;BME280;51514;52.206;5.114;2023-05-11T01:56:56;101500.31;;;14.47;99.86
64886;BME280;51514;52.206;5.114;2023-05-11T01:59:24;101503.72;;;14.49;100.00
64886;BME280;51514;52.206;5.114;2023-05-11T02:01:50;101511.66;;;14.50;100.00
64886;BME280;51514;52.206;5.114;2023-05-11T02:04:17;101508.78;;;14.52;100.00
64886;BME280;51514;52.206;5.114;2023-05-11T02:06:45;101520.50;;;14.52;100.00
64886;BME280;51514;52.206;5.114;2023-05-11T02:09:15;101519.66;;;14.52;100.00
64886;BME280;51514;52.206;5.114;2023-05-11T02:11:41;101520.50;;;14.52;100.00
64886;BME280;51514;52.206;5.114;2023-05-11T02:14:09;101521.34;;;14.53;100.00
64886;BME280;51514;52.206;5.114;2023-05-11T02:16:36;101526.78;;;14.53;100.00
64886;BME280;51514;52.206;5.114;2023-05-11T02:19:03;101528.47;;;14.54;100.00
64886;BME280;51514;52.206;5.114;2023-05-11T02:21:30;101521.34;;;14.53;100.00
64886;BME280;51514;52.206;5.114;2023-05-11T02:23:56;101530.50;;;14.52;100.00
64886;BME280;51514;52.206;5.114;2023-05-11T02:26:22;101529.50;;;14.53;100.00
64886;BME280;51514;52.206;5.114;2023-05-11T02:28:48;101538.47;;;14.53;100.00
64886;BME280;51514;52.206;5.114;2023-05-11T02:31:18;101526.78;;;14.53;100.00
64886;BME280;51514;52.206;5.114;2023-05-11T02:33:47;101527.78;;;14.52;100.00
64886;BME280;51514;52.206;5.114;2023-05-11T02:36:16;101525.75;;;14.54;100.00
64886;BME280;51514;52.206;5.114;2023-05-11T02:38:45;101525.59;;;14.55;100.00
64886;BME280;51514;52.206;5.114;2023-05-11T02:41:15;101521.34;;;14.53;100.00
64886;BME280;51514;52.206;5.114;2023-05-11T02:43:47;101515.06;;;14.52;100.00
64886;BME280;51514;52.206;5.114;2023-05-11T02:46:16;101526.59;;;14.54;100.00
64886;BME280;51514;52.206;5.114;2023-05-11T02:48:48;101521.88;;;14.56;100.00
64886;BME280;51514;52.206;5.114;2023-05-11T02:51:16;101520.00;;;14.57;100.00
64886;BME280;51514;52.206;5.114;2023-05-11T02:53:43;101527.13;;;14.58;100.00
64886;BME280;51514;52.206;5.114;2023-05-11T02:56:10;101526.28;;;14.57;100.00
64886;BME280;51514;52.206;5.114;2023-05-11T02:58:36;101524.25;;;14.59;100.00
64886;BME280;51514;52.206;5.114;2023-05-11T03:01:05;101531.19;;;14.62;100.00
64886;BME280;51514;52.206;5.114;2023-05-11T03:03:31;101526.44;;;14.64;100.00
64886;BME280;51514;52.206;5.114;2023-05-11T03:05:57;101532.88;;;14.63;100.00
64886;BME280;51514;52.206;5.114;2023-05-11T03:08:22;101526.13;;;14.59;100.00
64886;BME280;51514;52.206;5.114;2023-05-11T03:10:47;101527.13;;;14.58;100.00
64886;BME280;51514;52.206;5.114;2023-05-11T03:13:13;101524.25;;;14.59;100.00
64886;BME280;51514;52.206;5.114;2023-05-11T03:15:40;101528.47;;;14.62;100.00
64886;BME280;51514;52.206;5.114;2023-05-11T03:18:07;101523.91;;;14.63;100.00
64886;BME280;51514;52.206;5.114;2023-05-11T03:20:35;101519.47;;;14.61;100.00
64886;BME280;51514;52.206;5.114;2023-05-11T03:23:04;101525.09;;;14.60;100.00
64886;BME280;51514;52.206;5.114;2023-05-11T03:25:30;101523.03;;;14.54;100.00
64886;BME280;51514;52.206;5.114;2023-05-11T03:27:57;101522.88;;;14.47;100.00
64886;BME280;51514;52.206;5.114;2023-05-11T03:30:24;101523.03;;;14.46;100.00
64886;BME280;51514;52.206;5.114;2023-05-11T03:32:51;101524.75;;;14.47;100.00
64886;BME280;51514;52.206;5.114;2023-05-11T03:35:16;101522.72;;;14.49;100.00
64886;BME280;51514;52.206;5.114;2023-05-11T03:37:43;101517.09;;;14.50;100.00
64886;BME280;51514;52.206;5.114;2023-05-11T03:40:09;101515.91;;;14.53;100.00
64886;BME280;51514;52.206;5.114;2023-05-11T03:42:37;101511.19;;;14.55;100.00
64886;BME280;51514;52.206;5.114;2023-05-11T03:45:04;101513.72;;;14.56;100.00
64886;BME280;51514;52.206;5.114;2023-05-11T03:47:32;101515.44;;;14.57;100.00
64886;BME280;51514;52.206;5.114;2023-05-11T03:49:58;101522.72;;;14.57;100.00
64886;BME280;51514;52.206;5.114;2023-05-11T03:52:24;101506.44;;;14.57;100.00
64886;BME280;51514;52.206;5.114;2023-05-11T03:54:50;101505.75;;;14.55;100.00
64886;BME280;51514;52.206;5.114;2023-05-11T03:57:15;101502.19;;;14.54;100.00
64886;BME280;51514;52.206;5.114;2023-05-11T03:59:41;101511.50;;;14.52;100.00
64886;BME280;51514;52.206;5.114;2023-05-11T04:02:07;101517.09;;;14.50;100.00
64886;BME280;51514;52.206;5.114;2023-05-11T04:04:32;101510.50;;;14.45;100.00
64886;BME280;51514;52.206;5.114;2023-05-11T04:06:58;101512.34;;;14.44;100.00
64886;BME280;51514;52.206;5.114;2023-05-11T04:09:24;101506.75;;;14.46;100.00
64886;BME280;51514;52.206;5.114;2023-05-11T04:11:49;101501.34;;;14.46;100.00
64886;BME280;51514;52.206;5.114;2023-05-11T04:14:15;101499.31;;;14.48;100.00
64886;BME280;51514;52.206;5.114;2023-05-11T04:16:42;101503.72;;;14.49;100.00
64886;BME280;51514;52.206;5.114;2023-05-11T04:19:07;101502.03;;;14.48;100.00
64886;BME280;51514;52.206;5.114;2023-05-11T04:21:32;101501.00;;;14.49;100.00
64886;BME280;51514;52.206;5.114;2023-05-11T04:23:57;101506.25;;;14.50;100.00
64886;BME280;51514;52.206;5.114;2023-05-11T04:26:23;101509.81;;;14.51;100.00
64886;BME280;51514;52.206;5.114;2023-05-11T04:28:48;101513.53;;;14.50;100.00
64886;BME280;51514;52.206;5.114;2023-05-11T04:31:14;101522.69;;;14.41;100.00
64886;BME280;51514;52.206;5.114;2023-05-11T04:33:40;101517.25;;;14.41;100.00
64886;BME280;51514;52.206;5.114;2023-05-11T04:36:05;101521.66;;;14.42;100.00
64886;BME280;51514;52.206;5.114;2023-05-11T04:38:31;101524.19;;;14.35;100.00
64886;BME280;51514;52.206;5.114;2023-05-11T04:40:56;101518.22;;;14.32;100.00
64886;BME280;51514;52.206;5.114;2023-05-11T04:43:21;101519.22;;;14.22;100.00
64886;BME280;51514;52.206;5.114;2023-05-11T04:45:48;101525.84;;;14.28;100.00
64886;BME280;51514;52.206;5.114;2023-05-11T04:48:13;101532.81;;;14.31;100.00
64886;BME280;51514;52.206;5.114;2023-05-11T04:50:39;101531.78;;;14.32;100.00
64886;BME280;51514;52.206;5.114;2023-05-11T04:53:04;101533.34;;;14.34;100.00
64886;BME280;51514;52.206;5.114;2023-05-11T04:55:29;101534.34;;;14.33;100.00
64886;BME280;51514;52.206;5.114;2023-05-11T04:57:55;101534.19;;;14.35;100.00
64886;BME280;51514;52.206;5.114;2023-05-11T05:00:20;101539.28;;;14.38;100.00
64886;BME280;51514;52.206;5.114;2023-05-11T05:02:46;101536.91;;;14.35;100.00
64886;BME280;51514;52.206;5.114;2023-05-11T05:05:11;101538.75;;;14.34;100.00
64886;BME280;51514;52.206;5.114;2023-05-11T05:07:36;101546.72;;;14.36;100.00
64886;BME280;51514;52.206;5.114;2023-05-11T05:10:02;101553.34;;;14.33;100.00
64886;BME280;51514;52.206;5.114;2023-05-11T05:12:29;101546.03;;;14.34;100.00
64886;BME280;51514;52.206;5.114;2023-05-11T05:14:54;101544.34;;;14.33;100.00
64886;BME280;51514;52.206;5.114;2023-05-11T05:17:20;101550.47;;;14.35;100.00
64886;BME280;51514;52.206;5.114;2023-05-11T05:19:45;101554.19;;;14.34;100.00
64886;BME280;51514;52.206;5.114;2023-05-11T05:22:10;101558.59;;;14.35;100.00
64886;BME280;51514;52.206;5.114;2023-05-11T05:24:35;101552.31;;;14.34;100.00
64886;BME280;51514;52.206;5.114;2023-05-11T05:27:01;101561.31;;;14.35;100.00
64886;BME280;51514;52.206;5.114;2023-05-11T05:29:26;101563.19;;;14.34;100.00
64886;BME280;51514;52.206;5.114;2023-05-11T05:31:51;101559.63;;;14.34;100.00
64886;BME280;51514;52.206;5.114;2023-05-11T05:34:17;101563.00;;;14.36;100.00
64886;BME280;51514;52.206;5.114;2023-05-11T05:36:42;101563.88;;;14.36;100.00
64886;BME280;51514;52.206;5.114;2023-05-11T05:39:07;101565.56;;;14.37;100.00
64886;BME280;51514;52.206;5.114;2023-05-11T05:41:35;101570.31;;;14.35;100.00
64886;BME280;51514;52.206;5.114;2023-05-11T05:44:01;101562.50;;;14.32;100.00
64886;BME280;51514;52.206;5.114;2023-05-11T05:46:27;101582.00;;;14.28;100.00
64886;BME280;51514;52.206;5.114;2023-05-11T05:48:52;101577.91;;;14.23;100.00
64886;BME280;51514;52.206;5.114;2023-05-11T05:51:17;101576.56;;;14.28;100.00
64886;BME280;51514;52.206;5.114;2023-05-11T05:53:43;101588.75;;;14.32;100.00
64886;BME280;51514;52.206;5.114;2023-05-11T05:56:08;101581.31;;;14.34;100.00
64886;BME280;51514;52.206;5.114;2023-05-11T05:58:34;101589.78;;;14.39;100.00
64886;BME280;51514;52.206;5.114;2023-05-11T06:00:59;101600.34;;;14.42;100.00
64886;BME280;51514;52.206;5.114;2023-05-11T06:03:25;101586.78;;;14.42;100.00
64886;BME280;51514;52.206;5.114;2023-05-11T06:05:50;101592.91;;;14.44;100.00
64886;BME280;51514;52.206;5.114;2023-05-11T06:08:16;101591.72;;;14.46;100.00
64886;BME280;51514;52.206;5.114;2023-05-11T06:10:41;101593.75;;;14.44;100.00
64886;BME280;51514;52.206;5.114;2023-05-11T06:13:06;101602.06;;;14.43;100.00
64886;BME280;51514;52.206;5.114;2023-05-11T06:15:32;101605.47;;;14.45;100.00
64886;BME280;51514;52.206;5.114;2023-05-11T06:17:58;101610.56;;;14.48;100.00
64886;BME280;51514;52.206;5.114;2023-05-11T06:20:23;101610.22;;;14.51;100.00
64886;BME280;51514;52.206;5.114;2023-05-11T06:22:48;101613.28;;;14.56;100.00
64886;BME280;51514;52.206;5.114;2023-05-11T06:25:16;101608.88;;;14.63;100.00
64886;BME280;51514;52.206;5.114;2023-05-11T06:27:42;101600.25;;;14.68;100.00
64886;BME280;51514;52.206;5.114;2023-05-11T06:30:07;101605.16;;;14.72;100.00
64886;BME280;51514;52.206;5.114;2023-05-11T06:32:33;101609.25;;;14.76;100.00
64886;BME280;51514;52.206;5.114;2023-05-11T06:34:58;101603.50;;;14.79;100.00
64886;BME280;51514;52.206;5.114;2023-05-11T06:37:23;101610.63;;;14.80;100.00
64886;BME280;51514;52.206;5.114;2023-05-11T06:39:49;101607.91;;;14.80;100.00
64886;BME280;51514;52.206;5.114;2023-05-11T06:42:15;101608.56;;;14.82;100.00
64886;BME280;51514;52.206;5.114;2023-05-11T06:44:40;101614.38;;;14.87;100.00
64886;BME280;51514;52.206;5.114;2023-05-11T06:47:06;101611.97;;;14.84;99.93
64886;BME280;51514;52.206;5.114;2023-05-11T06:49:32;101616.22;;;14.87;100.00
64886;BME280;51514;52.206;5.114;2023-05-11T06:51:57;101619.97;;;14.94;100.00
64886;BME280;51514;52.206;5.114;2023-05-11T06:54:22;101614.03;;;14.98;99.62
64886;BME280;51514;52.206;5.114;2023-05-11T06:56:48;101614.88;;;14.99;99.85
64886;BME280;51514;52.206;5.114;2023-05-11T06:59:13;101622.72;;;15.02;99.60
64886;BME280;51514;52.206;5.114;2023-05-11T07:01:38;101614.34;;;15.04;98.69
64886;BME280;51514;52.206;5.114;2023-05-11T07:04:04;101620.84;;;15.11;99.49
64886;BME280;51514;52.206;5.114;2023-05-11T07:06:30;101617.25;;;15.26;99.69
64886;BME280;51514;52.206;5.114;2023-05-11T07:08:55;101609.94;;;15.43;98.66
64886;BME280;51514;52.206;5.114;2023-05-11T07:11:24;101616.38;;;15.50;97.52
64886;BME280;51514;52.206;5.114;2023-05-11T07:13:50;101618.78;;;15.61;97.66
64886;BME280;51514;52.206;5.114;2023-05-11T07:16:15;101614.88;;;15.64;96.39
64886;BME280;51514;52.206;5.114;2023-05-11T07:18:41;101614.03;;;15.63;94.47
64886;BME280;51514;52.206;5.114;2023-05-11T07:21:06;101609.94;;;15.67;94.98
64886;BME280;51514;52.206;5.114;2023-05-11T07:23:31;101608.25;;;15.66;94.02
64886;BME280;51514;52.206;5.114;2023-05-11T07:25:56;101604.84;;;15.64;93.94
64886;BME280;51514;52.206;5.114;2023-05-11T07:28:22;101605.03;;;15.63;94.19
64886;BME280;51514;52.206;5.114;2023-05-11T07:30:47;101611.63;;;15.68;95.60
64886;BME280;51514;52.206;5.114;2023-05-11T07:33:13;101611.28;;;15.72;94.77
64886;BME280;51514;52.206;5.114;2023-05-11T07:35:38;101612.66;;;15.76;94.16
64886;BME280;51514;52.206;5.114;2023-05-11T07:38:03;101611.97;;;15.74;92.33
64886;BME280;51514;52.206;5.114;2023-05-11T07:40:32;101613.97;;;15.80;92.81
64886;BME280;51514;52.206;5.114;2023-05-11T07:42:57;101619.94;;;15.75;91.65
64886;BME280;51514;52.206;5.114;2023-05-11T07:45:22;101617.06;;;15.77;91.86
64886;BME280;51514;52.206;5.114;2023-05-11T07:47:48;101614.31;;;15.85;92.00
64886;BME280;51514;52.206;5.114;2023-05-11T07:50:13;101620.41;;;15.95;92.12
64886;BME280;51514;52.206;5.114;2023-05-11T07:52:38;101617.66;;;16.03;91.95
64886;BME280;51514;52.206;5.114;2023-05-11T07:55:04;101614.25;;;16.09;91.80
64886;BME280;51514;52.206;5.114;2023-05-11T07:57:30;101613.53;;;16.15;91.05
64886;BME280;51514;52.206;5.114;2023-05-11T07:59:55;101620.78;;;16.23;91.61
64886;BME280;51514;52.206;5.114;2023-05-11T08:02:21;101624.19;;;16.33;91.70
64886;BME280;51514;52.206;5.114;2023-05-11T08:04:46;101619.84;;;16.47;91.53
64886;BME280;51514;52.206;5.114;2023-05-11T08:07:11;101619.81;;;16.55;87.79
64886;BME280;51514;52.206;5.114;2023-05-11T08:09:37;101615.00;;;16.65;90.00
64886;BME280;51514;52.206;5.114;2023-05-11T08:12:02;101629.88;;;16.77;90.04
64886;BME280;51514;52.206;5.114;2023-05-11T08:14:28;101630.53;;;16.87;90.26
64886;BME280;51514;52.206;5.114;2023-05-11T08:16:53;101627.91;;;16.94;90.35
64886;BME280;51514;52.206;5.114;2023-05-11T08:19:18;101625.31;;;17.00;89.14
64886;BME280;51514;52.206;5.114;2023-05-11T08:21:44;101628.03;;;17.00;85.04
64886;BME280;51514;52.206;5.114;2023-05-11T08:24:10;101624.09;;;17.03;82.53
64886;BME280;51514;52.206;5.114;2023-05-11T08:26:36;101618.13;;;17.07;82.21
64886;BME280;51514;52.206;5.114;2023-05-11T08:29:01;101624.94;;;17.03;81.18
64886;BME280;51514;52.206;5.114;2023-05-11T08:31:28;101627.56;;;16.97;80.97
64886;BME280;51514;52.206;5.114;2023-05-11T08:33:53;101621.81;;;16.92;81.17
64886;BME280;51514;52.206;5.114;2023-05-11T08:36:18;101623.00;;;16.89;81.90
64886;BME280;51514;52.206;5.114;2023-05-11T08:38:44;101616.41;;;16.84;82.15
64886;BME280;51514;52.206;5.114;2023-05-11T08:41:11;101621.69;;;16.85;83.09
64886;BME280;51514;52.206;5.114;2023-05-11T08:43:38;101620.00;;;16.84;82.13
64886;BME280;51514;52.206;5.114;2023-05-11T08:46:05;101622.72;;;16.84;81.08
64886;BME280;51514;52.206;5.114;2023-05-11T08:48:34;101620.09;;;16.91;81.74
64886;BME280;51514;52.206;5.114;2023-05-11T08:51:00;101623.34;;;17.09;81.75
64886;BME280;51514;52.206;5.114;2023-05-11T08:53:27;101619.97;;;17.30;79.93
64886;BME280;51514;52.206;5.114;2023-05-11T08:55:57;101621.88;;;17.44;81.11
64886;BME280;51514;52.206;5.114;2023-05-11T08:58:23;101623.78;;;17.58;80.88
64886;BME280;51514;52.206;5.114;2023-05-11T09:00:49;101628.41;;;17.58;80.21
64886;BME280;51514;52.206;5.114;2023-05-11T09:03:18;101620.41;;;17.56;82.22
64886;BME280;51514;52.206;5.114;2023-05-11T09:05:45;101624.53;;;17.52;83.76
64886;BME280;51514;52.206;5.114;2023-05-11T09:08:12;101629.38;;;17.42;82.97
64886;BME280;51514;52.206;5.114;2023-05-11T09:10:37;101632.69;;;17.37;83.21
64886;BME280;51514;52.206;5.114;2023-05-11T09:13:02;101624.38;;;17.31;83.76
64886;BME280;51514;52.206;5.114;2023-05-11T09:15:29;101621.19;;;17.27;83.53
64886;BME280;51514;52.206;5.114;2023-05-11T09:17:54;101626.16;;;17.24;83.95
64886;BME280;51514;52.206;5.114;2023-05-11T09:20:26;101625.88;;;17.19;82.66
64886;BME280;51514;52.206;5.114;2023-05-11T09:22:53;101631.69;;;17.15;82.82
64886;BME280;51514;52.206;5.114;2023-05-11T09:25:19;101631.00;;;17.13;83.00
64886;BME280;51514;52.206;5.114;2023-05-11T09:27:46;101637.47;;;17.12;83.16
64886;BME280;51514;52.206;5.114;2023-05-11T09:30:20;101628.44;;;17.12;83.61
64886;BME280;51514;52.206;5.114;2023-05-11T09:35:19;101630.91;;;17.07;83.09
64886;BME280;51514;52.206;5.114;2023-05-11T09:40:30;101632.34;;;17.18;85.81
64886;BME280;51514;52.206;5.114;2023-05-11T09:42:56;101629.91;;;17.23;85.30
64886;BME280;51514;52.206;5.114;2023-05-11T09:45:42;101634.63;;;17.29;85.78
64886;BME280;51514;52.206;5.114;2023-05-11T09:50:46;101631.13;;;17.58;87.57
64886;BME280;51514;52.206;5.114;2023-05-11T09:53:12;101629.09;;;17.74;87.36
64886;BME280;51514;52.206;5.114;2023-05-11T09:55:38;101630.34;;;17.72;84.93
64886;BME280;51514;52.206;5.114;2023-05-11T09:58:04;101631.19;;;17.72;85.14
64886;BME280;51514;52.206;5.114;2023-05-11T10:00:30;101626.09;;;17.69;85.81
64886;BME280;51514;52.206;5.114;2023-05-11T10:03:04;101632.59;;;17.68;85.53
64886;BME280;51514;52.206;5.114;2023-05-11T10:05:32;101634.28;;;17.69;85.20
64886;BME280;51514;52.206;5.114;2023-05-11T10:07:59;101636.69;;;17.64;85.06
64886;BME280;51514;52.206;5.114;2023-05-11T10:10:29;101639.13;;;17.59;85.41
64886;BME280;51514;52.206;5.114;2023-05-11T10:12:57;101629.59;;;17.55;85.87
64886;BME280;51514;52.206;5.114;2023-05-11T10:15:23;101644.00;;;17.49;86.29
64886;BME280;51514;52.206;5.114;2023-05-11T10:17:53;101638.97;;;17.38;86.79
64886;BME280;51514;52.206;5.114;2023-05-11T10:20:19;101636.34;;;17.30;87.27
64886;BME280;51514;52.206;5.114;2023-05-11T10:22:45;101635.84;;;17.26;88.28
64886;BME280;51514;52.206;5.114;2023-05-11T10:25:10;101630.28;;;17.20;88.78
64886;BME280;51514;52.206;5.114;2023-05-11T10:27:36;101632.03;;;17.12;87.64
64886;BME280;51514;52.206;5.114;2023-05-11T10:30:02;101634.16;;;17.02;87.02
64886;BME280;51514;52.206;5.114;2023-05-11T10:32:28;101635.91;;;16.95;88.05
64886;BME280;51514;52.206;5.114;2023-05-11T10:34:55;101630.88;;;16.84;88.46
64886;BME280;51514;52.206;5.114;2023-05-11T10:37:21;101629.53;;;16.80;89.57
64886;BME280;51514;52.206;5.114;2023-05-11T10:39:47;101633.66;;;16.76;90.22
64886;BME280;51514;52.206;5.114;2023-05-11T10:53:19;101634.50;;;16.37;93.68
64886;BME280;51514;52.206;5.114;2023-05-11T10:58:49;101637.25;;;16.37;95.01
64886;BME280;51514;52.206;5.114;2023-05-11T11:01:35;101637.41;;;16.36;95.36
64886;BME280;51514;52.206;5.114;2023-05-11T11:04:03;101635.72;;;16.35;96.21
64886;BME280;51514;52.206;5.114;2023-05-11T11:06:33;101645.09;;;16.32;96.73
64886;BME280;51514;52.206;5.114;2023-05-11T11:09:14;101641.75;;;16.22;96.45
64886;BME280;51514;52.206;5.114;2023-05-11T11:11:44;101641.41;;;16.17;96.62
64886;BME280;51514;52.206;5.114;2023-05-11T11:14:12;101635.78;;;16.19;97.52
64886;BME280;51514;52.206;5.114;2023-05-11T11:16:38;101643.78;;;16.20;97.37
64886;BME280;51514;52.206;5.114;2023-05-11T11:22:03;101638.66;;;16.25;98.38
64886;BME280;51514;52.206;5.114;2023-05-11T11:27:04;101630.44;;;16.41;98.23
64886;BME280;51514;52.206;5.114;2023-05-11T11:29:30;101631.22;;;16.50;98.25
64886;BME280;51514;52.206;5.114;2023-05-11T11:34:50;101640.25;;;16.51;97.36
64886;BME280;51514;52.206;5.114;2023-05-11T11:37:16;101639.91;;;16.54;97.48
64886;BME280;51514;52.206;5.114;2023-05-11T11:42:11;101637.34;;;16.52;96.75
64886;BME280;51514;52.206;5.114;2023-05-11T11:44:37;101633.28;;;16.48;96.29
64886;BME280;51514;52.206;5.114;2023-05-11T11:49:48;101639.28;;;16.35;95.61
64886;BME280;51514;52.206;5.114;2023-05-11T11:54:52;101642.75;;;16.21;94.92
64886;BME280;51514;52.206;5.114;2023-05-11T12:00:02;101646.69;;;16.19;95.98
64886;BME280;51514;52.206;5.114;2023-05-11T12:02:32;101649.91;;;16.22;96.57
64886;BME280;51514;52.206;5.114;2023-05-11T12:05:16;101650.72;;;16.23;95.81
64886;BME280;51514;52.206;5.114;2023-05-11T12:07:48;101649.22;;;16.20;95.55
64886;BME280;51514;52.206;5.114;2023-05-11T12:10:15;101643.78;;;16.20;95.82
64886;BME280;51514;52.206;5.114;2023-05-11T12:12:49;101646.13;;;16.23;96.84
64886;BME280;51514;52.206;5.114;2023-05-11T12:15:23;101647.50;;;16.27;97.62
64886;BME280;51514;52.206;5.114;2023-05-11T12:17:49;101649.03;;;16.30;97.27
64886;BME280;51514;52.206;5.114;2023-05-11T12:20:17;101651.19;;;16.34;97.94
64886;BME280;51514;52.206;5.114;2023-05-11T12:22:43;101649.81;;;16.38;98.07
64886;BME280;51514;52.206;5.114;2023-05-11T12:25:14;101642.16;;;16.42;98.82
64886;BME280;51514;52.206;5.114;2023-05-11T12:27:53;101642.00;;;16.43;99.04
64886;BME280;51514;52.206;5.114;2023-05-11T12:30:28;101638.88;;;16.47;98.74
64886;BME280;51514;52.206;5.114;2023-05-11T12:32:54;101632.41;;;16.48;97.84
64886;BME280;51514;52.206;5.114;2023-05-11T12:35:31;101637.19;;;16.46;98.67
64886;BME280;51514;52.206;5.114;2023-05-11T12:37:58;101634.13;;;16.49;98.33
64886;BME280;51514;52.206;5.114;2023-05-11T12:40:24;101639.03;;;16.53;98.66
64886;BME280;51514;52.206;5.114;2023-05-11T12:42:54;101634.44;;;16.54;97.23
64886;BME280;51514;52.206;5.114;2023-05-11T12:45:21;101643.09;;;16.57;96.88
64886;BME280;51514;52.206;5.114;2023-05-11T12:47:49;101644.63;;;16.60;97.20
64886;BME280;51514;52.206;5.114;2023-05-11T12:50:15;101641.03;;;16.59;96.65
64886;BME280;51514;52.206;5.114;2023-05-11T12:52:41;101637.81;;;16.64;95.72
64886;BME280;51514;52.206;5.114;2023-05-11T12:55:06;101640.84;;;16.69;95.75
64886;BME280;51514;52.206;5.114;2023-05-11T12:57:33;101644.75;;;16.66;94.57
64886;BME280;51514;52.206;5.114;2023-05-11T13:00:10;101654.81;;;16.66;94.37
64886;BME280;51514;52.206;5.114;2023-05-11T13:05:14;101655.00;;;16.64;94.97
64886;BME280;51514;52.206;5.114;2023-05-11T13:07:39;101654.47;;;16.69;94.56
64886;BME280;51514;52.206;5.114;2023-05-11T13:10:05;101652.41;;;16.71;93.30
64886;BME280;51514;52.206;5.114;2023-05-11T13:12:31;101652.06;;;16.74;94.17
64886;BME280;51514;52.206;5.114;2023-05-11T13:17:33;101656.78;;;16.80;93.47
64886;BME280;51514;52.206;5.114;2023-05-11T13:22:48;101654.56;;;16.84;93.84
64886;BME280;51514;52.206;5.114;2023-05-11T13:25:15;101654.00;;;16.88;93.12
64886;BME280;51514;52.206;5.114;2023-05-11T13:27:41;101657.22;;;16.92;91.71
64886;BME280;51514;52.206;5.114;2023-05-11T13:30:07;101657.03;;;16.93;91.92
64886;BME280;51514;52.206;5.114;2023-05-11T13:32:33;101651.94;;;16.90;90.96
64886;BME280;51514;52.206;5.114;2023-05-11T13:35:04;101647.00;;;16.94;91.54
64886;BME280;51514;52.206;5.114;2023-05-11T13:37:30;101653.97;;;16.96;90.66
64886;BME280;51514;52.206;5.114;2023-05-11T13:39:56;101643.53;;;17.00;91.46
64886;BME280;51514;52.206;5.114;2023-05-11T13:42:22;101642.81;;;17.06;92.35
64886;BME280;51514;52.206;5.114;2023-05-11T13:44:47;101646.84;;;17.10;91.97